createdAt,value
2022-08-02T00:04:31.481Z,101774.50
2022-08-02T00:09:53.226Z,101774.75
2022-08-02T00:15:16.288Z,101778.66
2022-08-02T00:20:38.213Z,101769.44
2022-08-02T00:25:59.982Z,101775.28
2022-08-02T00:31:21.796Z,101772.50
2022-08-02T00:36:43.586Z,101776.41
2022-08-02T00:42:05.552Z,101777.22
2022-08-02T00:47:27.261Z,101767.16
2022-08-02T00:52:48.934Z,101764.38
2022-08-02T00:58:10.683Z,101756.25
2022-08-02T01:03:32.360Z,101752.59
2022-08-02T01:08:54.033Z,101759.28
2022-08-02T01:14:16.077Z,101750.34
2022-08-02T01:19:51.579Z,101741.69
2022-08-02T01:25:41.235Z,101748.13
2022-08-02T01:31:41.442Z,101741.63
2022-08-02T01:37:21.820Z,101723.75
2022-08-02T01:42:48.567Z,101732.13
2022-08-02T01:48:11.593Z,101742.47
2022-08-02T01:53:35.403Z,101738.84
2022-08-02T01:58:57.412Z,101730.44
2022-08-02T02:04:22.949Z,101725.97
2022-08-02T02:09:50.239Z,101722.34
2022-08-02T02:15:13.679Z,101707.53
2022-08-02T02:20:36.710Z,101689.09
2022-08-02T02:25:59.517Z,101687.41
2022-08-02T02:31:26.870Z,101687.13
2022-08-02T02:36:52.166Z,101688.25
2022-08-02T02:42:15.251Z,101695.44
2022-08-02T02:47:40.972Z,101691.31
2022-08-02T02:53:04.229Z,101680.97
2022-08-02T02:58:29.025Z,101671.13
2022-08-02T03:03:52.114Z,101675.91
2022-08-02T03:09:13.970Z,101673.34
2022-08-02T03:14:40.286Z,101690.09
2022-08-02T03:20:01.963Z,101702.38
2022-08-02T03:25:23.669Z,101687.59
2022-08-02T03:30:45.348Z,101679.19
2022-08-02T03:36:12.473Z,101663.53
2022-08-02T03:41:37.055Z,101676.41
2022-08-02T03:46:59.103Z,101673.03
2022-08-02T03:52:20.918Z,101684.19
2022-08-02T03:57:43.105Z,101668.28
2022-08-02T04:03:04.860Z,101661.84
2022-08-02T04:08:35.797Z,101649.00
2022-08-02T04:14:05.604Z,101648.16
2022-08-02T04:19:32.832Z,101652.91
2022-08-02T04:25:03.278Z,101658.75
2022-08-02T04:30:26.170Z,101665.44
2022-08-02T04:35:48.005Z,101661.53
2022-08-02T04:41:09.899Z,101667.13
2022-08-02T04:46:32.233Z,101668.22
2022-08-02T04:51:53.943Z,101664.56
2022-08-02T04:57:34.047Z,101677.44
2022-08-02T05:02:57.140Z,101670.44
2022-08-02T05:08:18.910Z,101668.47
2022-08-02T05:13:57.906Z,101665.97
2022-08-02T05:19:20.777Z,101668.75
2022-08-02T05:24:42.493Z,101682.13
2022-08-02T05:30:08.415Z,101679.91
2022-08-02T05:35:30.182Z,101679.63
2022-08-02T05:40:55.047Z,101684.41
2022-08-02T05:46:17.021Z,101688.28
2022-08-02T05:52:04.446Z,101693.38
2022-08-02T05:57:47.290Z,101696.75
2022-08-02T06:03:37.178Z,101693.38
2022-08-02T06:09:03.536Z,101696.97
2022-08-02T06:14:25.416Z,101699.78
2022-08-02T06:19:58.383Z,101695.06
2022-08-02T06:25:50.145Z,101691.16
2022-08-02T06:31:06.229Z,101683.88
2022-08-02T06:36:36.552Z,101683.34
2022-08-02T06:42:03.069Z,101674.41
2022-08-02T06:47:24.821Z,101677.75
2022-08-02T06:52:46.594Z,101682.50
2022-08-02T06:58:08.290Z,101694.50
2022-08-02T07:03:31.242Z,101690.63
2022-08-02T07:09:18.243Z,101692.31
2022-08-02T07:14:34.673Z,101694.00
2022-08-02T07:19:58.653Z,101689.28
2022-08-02T07:25:20.454Z,101691.19
2022-08-02T07:30:42.881Z,101679.78
2022-08-02T07:36:05.756Z,101674.19
2022-08-02T07:41:30.729Z,101675.03
2022-08-02T07:46:52.453Z,101675.03
2022-08-02T07:52:14.504Z,101683.13
2022-08-02T07:57:37.249Z,101688.72
2022-08-02T08:02:59.784Z,101689.63
2022-08-02T08:08:21.649Z,101679.28
2022-08-02T08:13:43.334Z,101682.06
2022-08-02T08:19:05.132Z,101684.03
2022-08-02T08:24:27.701Z,101677.34
2022-08-02T08:29:49.888Z,101680.72
2022-08-02T08:35:12.361Z,101679.84
2022-08-02T08:40:34.314Z,101686.31
2022-08-02T08:45:56.503Z,101678.75
2022-08-02T08:51:21.478Z,101679.63
2022-08-02T08:56:44.345Z,101680.72
2022-08-02T09:02:17.883Z,101683.50
2022-08-02T09:07:50.065Z,101677.06
2022-08-02T09:13:38.706Z,101677.38
2022-08-02T09:19:26.435Z,101670.69
2022-08-02T09:24:50.223Z,101670.97
2022-08-02T09:30:15.476Z,101667.06
2022-08-02T09:36:06.770Z,101677.38
2022-08-02T09:41:25.392Z,101670.09
2022-08-02T09:46:47.091Z,101671.78
2022-08-02T09:52:09.068Z,101668.47
2022-08-02T09:57:33.690Z,101675.47
2022-08-02T10:03:21.490Z,101677.75
2022-08-02T10:08:44.645Z,101670.25
2022-08-02T10:14:09.460Z,101670.78
2022-08-02T10:20:01.143Z,101655.72
2022-08-02T10:25:13.904Z,101658.00
2022-08-02T10:30:41.007Z,101661.38
2022-08-02T10:36:07.633Z,101663.06
2022-08-02T10:41:48.185Z,101656.09
2022-08-02T10:47:25.486Z,101655.25
2022-08-02T10:52:47.205Z,101642.91
2022-08-02T10:58:19.116Z,101639.00
2022-08-02T11:03:41.780Z,101637.31
2022-08-02T11:09:32.848Z,101636.22
2022-08-02T11:15:00.700Z,101634.84
2022-08-02T11:20:23.935Z,101625.63
2022-08-02T11:26:03.364Z,101632.03
2022-08-02T11:31:25.854Z,101624.25
2022-08-02T11:36:50.552Z,101634.59
2022-08-02T11:42:15.177Z,101632.03
2022-08-02T11:47:54.294Z,101623.66
2022-08-02T11:53:16.619Z,101612.19
2022-08-02T11:58:38.946Z,101615.84
2022-08-02T12:04:04.528Z,101618.03
2022-08-02T12:09:28.288Z,101609.38
2022-08-02T12:14:50.493Z,101620.56
2022-08-02T12:20:13.478Z,101606.59
2022-08-02T12:25:35.750Z,101616.66
2022-08-02T12:31:01.117Z,101611.59
2022-08-02T12:36:27.165Z,101620.03
2022-08-02T12:41:57.796Z,101613.44
2022-08-02T12:47:21.792Z,101605.94
2022-08-02T12:52:47.162Z,101595.34
2022-08-02T12:58:09.051Z,101586.38
2022-08-02T13:04:07.690Z,101589.16
2022-08-02T13:09:17.417Z,101588.34
2022-08-02T13:14:41.966Z,101575.50
2022-08-02T13:20:05.589Z,101588.63
2022-08-02T13:25:31.786Z,101569.91
2022-08-02T13:30:53.963Z,101562.63
2022-08-02T13:36:15.702Z,101564.31
2022-08-02T13:41:37.657Z,101547.53
2022-08-02T13:46:59.476Z,101555.63
2022-08-02T13:52:21.320Z,101546.44
2022-08-02T13:57:43.104Z,101545.31
2022-08-02T14:03:15.196Z,101531.34
2022-08-02T14:08:38.277Z,101528.56
2022-08-02T14:14:00.021Z,101527.69
2022-08-02T14:19:24.310Z,101524.06
2022-08-02T14:24:46.062Z,101527.97
2022-08-02T14:30:08.815Z,101521.28
2022-08-02T14:35:31.779Z,101520.44
2022-08-02T14:40:53.489Z,101505.59
2022-08-02T14:46:15.201Z,101515.69
2022-08-02T14:51:38.338Z,101509.25
2022-08-02T14:57:01.840Z,101502.81
2022-08-02T15:02:23.575Z,101499.19
2022-08-02T15:07:49.378Z,101491.63
2022-08-02T15:13:11.555Z,101490.53
2022-08-02T15:18:33.292Z,101493.31
2022-08-02T15:23:54.959Z,101492.22
2022-08-02T15:29:18.071Z,101483.81
2022-08-02T15:34:40.603Z,101483.81
2022-08-02T15:40:02.381Z,101483.81
2022-08-02T15:45:25.601Z,101479.06
2022-08-02T15:50:47.371Z,101473.47
2022-08-02T15:56:12.907Z,101469.84
2022-08-02T16:01:37.358Z,101458.38
2022-08-02T16:07:01.616Z,101462.03
2022-08-02T16:12:32.295Z,101449.75
2022-08-02T16:17:54.850Z,101450.59
2022-08-02T16:23:16.562Z,101445.28
2022-08-02T16:28:38.328Z,101448.34
2022-08-02T16:34:00.293Z,101436.91
2022-08-02T16:39:22.002Z,101427.41
2022-08-02T16:44:43.767Z,101430.78
2022-08-02T16:50:15.667Z,101436.72
2022-08-02T16:55:51.498Z,101429.75
2022-08-02T17:01:13.843Z,101431.44
2022-08-02T17:06:35.651Z,101427.00
2022-08-02T17:11:58.148Z,101423.38
2022-08-02T17:17:22.094Z,101421.97
2022-08-02T17:22:55.945Z,101418.63
2022-08-02T17:28:22.346Z,101426.22
2022-08-02T17:33:53.810Z,101428.44
2022-08-02T17:39:15.534Z,101429.25
2022-08-02T17:44:38.545Z,101417.25
2022-08-02T17:50:00.646Z,101428.69
2022-08-02T17:55:22.633Z,101434.31
2022-08-02T18:00:44.941Z,101424.78
2022-08-02T18:06:07.180Z,101428.16
2022-08-02T18:11:52.457Z,101425.38
2022-08-02T18:17:16.020Z,101428.16
2022-08-02T18:22:39.608Z,101426.47
2022-08-02T18:28:05.212Z,101426.19
2022-08-02T18:33:59.779Z,101423.69
2022-08-02T18:39:08.716Z,101427.03
2022-08-02T18:44:31.268Z,101422.84
2022-08-02T18:49:56.327Z,101420.28
2022-08-02T18:55:59.563Z,101414.41
2022-08-02T19:00:59.765Z,101423.66
2022-08-02T19:06:27.612Z,101419.44
2022-08-02T19:11:51.071Z,101430.91
2022-08-02T19:17:53.988Z,101423.63
2022-08-02T19:22:54.709Z,101429.50
2022-08-02T19:28:16.408Z,101429.75
2022-08-02T19:34:04.600Z,101432.84
2022-08-02T19:39:30.018Z,101423.63
2022-08-02T19:44:52.483Z,101438.16
2022-08-02T19:50:18.934Z,101441.81
2022-08-02T19:56:01.319Z,101448.25
2022-08-02T20:01:37.341Z,101453.31
2022-08-02T20:07:01.317Z,101447.97
2022-08-02T20:12:25.464Z,101459.72
2022-08-02T20:17:49.070Z,101453.31
2022-08-02T20:23:34.057Z,101461.41
2022-08-02T20:28:56.052Z,101458.91
2022-08-02T20:34:26.247Z,101469.53
2022-08-02T20:39:48.299Z,101471.16
2022-08-02T20:45:12.034Z,101476.47
2022-08-02T20:50:49.216Z,101480.66
2022-08-02T20:56:12.720Z,101477.31
2022-08-02T21:01:37.137Z,101471.13
2022-08-02T21:06:59.306Z,101470.28
2022-08-02T21:12:29.768Z,101466.66
2022-08-02T21:18:13.412Z,101467.47
2022-08-02T21:23:36.215Z,101459.66
2022-08-02T21:29:00.755Z,101472.78
2022-08-02T21:34:27.170Z,101458.81
2022-08-02T21:39:50.024Z,101457.97
2022-08-02T21:45:17.280Z,101459.91
2022-08-02T21:50:39.298Z,101467.75
2022-08-02T21:56:02.769Z,101462.16
2022-08-02T22:01:24.919Z,101463.50
2022-08-02T22:06:51.490Z,101473.84
2022-08-02T22:12:16.941Z,101467.69
2022-08-02T22:17:51.574Z,101464.88
2022-08-02T22:23:38.551Z,101469.38
2022-08-02T22:28:59.690Z,101468.78
2022-08-02T22:34:36.782Z,101467.69
2022-08-02T22:40:08.413Z,101480.81
2022-08-02T22:45:31.884Z,101471.59
2022-08-02T22:50:59.557Z,101475.50
2022-08-02T22:56:21.383Z,101479.41
2022-08-02T23:01:43.851Z,101474.91
2022-08-02T23:07:05.993Z,101481.38
2022-08-02T23:12:27.713Z,101481.38
2022-08-02T23:18:08.544Z,101482.47
2022-08-02T23:23:30.335Z,101483.59
2022-08-02T23:28:52.036Z,101480.22
2022-08-02T23:34:13.745Z,101483.88
2022-08-02T23:39:36.645Z,101480.22
2022-08-02T23:44:58.380Z,101489.47
2022-08-02T23:50:20.127Z,101486.66
2022-08-02T23:55:41.897Z,101493.38
